createdAt,value
2018-03-21T00:01:40.668Z,2.60
2018-03-21T00:03:43.816Z,2.60
2018-03-21T00:05:47.748Z,2.60
2018-03-21T00:07:51.683Z,2.60
2018-03-21T00:09:54.856Z,2.50
2018-03-21T00:11:58.001Z,2.50
2018-03-21T00:14:01.182Z,2.50
2018-03-21T00:16:05.097Z,2.50
2018-03-21T00:18:08.269Z,2.50
2018-03-21T00:20:11.414Z,2.50
2018-03-21T00:22:14.553Z,2.40
2018-03-21T00:24:17.717Z,2.40
2018-03-21T00:26:20.887Z,2.40
2018-03-21T00:28:25.708Z,2.30
2018-03-21T00:30:29.647Z,2.30
2018-03-21T00:32:32.817Z,2.30
2018-03-21T00:34:36.758Z,2.20
2018-03-21T00:36:40.709Z,2.20
2018-03-21T00:38:45.501Z,2.20
2018-03-21T00:40:49.431Z,2.10
2018-03-21T00:42:52.582Z,2.10
2018-03-21T00:44:55.763Z,2.10
2018-03-21T00:46:59.674Z,2.10
2018-03-21T00:49:02.813Z,2.10
2018-03-21T00:51:05.989Z,2.10
2018-03-21T00:53:09.135Z,2.00
2018-03-21T00:55:12.284Z,2.00
2018-03-21T00:57:15.453Z,2.00
2018-03-21T00:59:18.596Z,1.90
2018-03-21T01:01:21.748Z,1.90
2018-03-21T01:03:25.972Z,1.80
2018-03-21T01:05:29.884Z,1.80
2018-03-21T01:07:33.029Z,1.80
2018-03-21T01:09:36.201Z,1.80
2018-03-21T01:11:40.141Z,1.70
2018-03-21T01:13:44.048Z,1.70
2018-03-21T01:15:47.195Z,1.70
2018-03-21T01:17:50.368Z,1.70
2018-03-21T01:19:54.277Z,1.60
2018-03-21T01:21:57.448Z,1.60
2018-03-21T01:24:00.630Z,1.60
2018-03-21T01:26:03.778Z,1.60
2018-03-21T01:28:06.957Z,1.60
2018-03-21T01:30:10.100Z,1.60
2018-03-21T01:32:13.293Z,1.60
2018-03-21T01:34:16.473Z,1.50
2018-03-21T01:36:19.621Z,1.50
2018-03-21T01:38:22.769Z,1.50
2018-03-21T01:40:26.220Z,1.50
2018-03-21T01:42:29.397Z,1.40
2018-03-21T01:44:33.535Z,1.40
2018-03-21T01:46:36.681Z,1.40
2018-03-21T01:48:39.820Z,1.40
2018-03-21T01:50:42.984Z,1.40
2018-03-21T01:52:46.592Z,1.40
2018-03-21T01:54:49.769Z,1.30
2018-03-21T01:56:53.707Z,1.20
2018-03-21T01:58:56.853Z,1.30
2018-03-21T02:00:59.996Z,1.30
2018-03-21T03:52:10.140Z,-0.20
2018-03-21T03:54:13.296Z,-0.20
2018-03-21T03:56:16.444Z,-0.20
2018-03-21T03:58:19.626Z,-0.30
2018-03-21T04:00:22.776Z,-0.30
2018-03-21T04:02:25.925Z,-0.20
2018-03-21T04:04:29.105Z,-0.20
2018-03-21T04:06:33.027Z,-0.20
2018-03-21T04:08:36.941Z,-0.20
2018-03-21T04:10:40.129Z,-0.20
2018-03-21T04:12:43.289Z,-0.20
2018-03-21T04:14:48.208Z,-0.20
2018-03-21T04:16:52.968Z,-0.20
2018-03-21T04:18:57.730Z,-0.10
2018-03-21T04:21:06.470Z,-0.20
2018-03-21T04:23:11.369Z,-0.20
2018-03-21T04:25:14.652Z,-0.20
2018-03-21T04:27:17.810Z,-0.10
2018-03-21T04:29:21.677Z,-0.10
2018-03-21T04:31:25.872Z,-0.20
2018-03-21T04:33:29.924Z,-0.10
2018-03-21T04:35:33.626Z,-0.10
2018-03-21T04:37:38.224Z,-0.10
2018-03-21T04:39:41.488Z,-0.10
2018-03-21T04:41:44.664Z,-0.10
2018-03-21T04:43:49.465Z,-0.20
2018-03-21T04:45:54.131Z,-0.20
2018-03-21T04:47:59.005Z,-0.10
2018-03-21T04:50:04.994Z,-0.20
2018-03-21T04:52:09.830Z,-0.20
2018-03-21T04:54:13.152Z,-0.20
2018-03-21T04:56:16.295Z,-0.20
2018-03-21T04:58:19.472Z,-0.20
2018-03-21T05:00:22.621Z,-0.20
2018-03-21T05:02:26.547Z,-0.20
2018-03-21T05:04:29.726Z,-0.20
2018-03-21T05:06:33.364Z,-0.20
2018-03-21T05:08:36.512Z,-0.20
2018-03-21T05:10:40.448Z,-0.20
2018-03-21T05:12:43.642Z,-0.30
2018-03-21T05:14:47.580Z,-0.20
2018-03-21T05:16:50.769Z,-0.30
2018-03-21T05:18:54.701Z,-0.30
2018-03-21T05:20:58.669Z,-0.30
2018-03-21T05:23:01.820Z,-0.30
2018-03-21T05:25:05.157Z,-0.30
2018-03-21T05:27:08.312Z,-0.30
2018-03-21T05:29:11.457Z,-0.30
2018-03-21T05:31:15.406Z,-0.30
2018-03-21T05:33:18.557Z,-0.30
2018-03-21T05:35:21.718Z,-0.30
2018-03-21T05:37:24.911Z,-0.30
2018-03-21T05:39:28.820Z,-0.40
2018-03-21T05:41:31.981Z,-0.40
2018-03-21T05:43:35.356Z,-0.40
2018-03-21T05:45:40.763Z,-0.40
2018-03-21T05:47:45.877Z,-0.40
2018-03-21T05:49:50.300Z,-0.40
2018-03-21T05:51:56.217Z,-0.40
2018-03-21T05:54:00.579Z,-0.40
2018-03-21T05:56:04.494Z,-0.40
2018-03-21T05:58:07.686Z,-0.40
2018-03-21T06:00:10.856Z,-0.40
2018-03-21T06:02:14.818Z,-0.50
2018-03-21T06:04:17.976Z,-0.50
2018-03-21T06:06:21.934Z,-0.50
2018-03-21T06:08:25.777Z,-0.50
2018-03-21T06:10:29.678Z,-0.40
2018-03-21T06:12:34.318Z,-0.50
2018-03-21T06:14:38.904Z,-0.50
2018-03-21T06:16:44.207Z,-0.40
2018-03-21T06:18:47.812Z,-0.40
2018-03-21T06:20:51.034Z,-0.40
2018-03-21T06:22:54.190Z,-0.40
2018-03-21T06:24:57.342Z,-0.40
2018-03-21T06:27:00.516Z,-0.40
2018-03-21T06:29:03.663Z,-0.40
2018-03-21T06:31:08.392Z,-0.40
2018-03-21T06:33:14.052Z,-0.40
2018-03-21T06:35:17.270Z,-0.40
2018-03-21T06:37:20.421Z,-0.40
2018-03-21T06:39:23.645Z,-0.30
2018-03-21T06:41:26.802Z,-0.30
2018-03-21T06:43:29.952Z,-0.30
2018-03-21T06:45:34.053Z,-0.30
2018-03-21T06:47:39.802Z,-0.20
2018-03-21T06:49:44.815Z,-0.20
2018-03-21T06:51:48.915Z,-0.20
2018-03-21T06:53:52.061Z,-0.20
2018-03-21T06:55:55.259Z,-0.20
2018-03-21T06:57:59.065Z,-0.10
2018-03-21T07:00:02.254Z,-0.10
2018-03-21T07:02:05.443Z,-0.10
2018-03-21T07:04:08.641Z,-0.10
2018-03-21T07:06:11.822Z,0.00
2018-03-21T07:08:17.352Z,0.00
2018-03-21T07:10:21.910Z,0.00
2018-03-21T07:12:26.592Z,0.10
2018-03-21T07:14:47.745Z,0.10
2018-03-21T07:16:50.923Z,0.10
2018-03-21T07:18:54.089Z,0.20
2018-03-21T07:20:59.892Z,0.30
2018-03-21T07:23:03.086Z,0.30
2018-03-21T07:25:07.046Z,0.40
2018-03-21T07:27:12.075Z,0.40
2018-03-21T07:29:16.343Z,0.50
2018-03-21T07:31:22.169Z,0.50
2018-03-21T07:33:25.480Z,0.60
2018-03-21T07:35:29.425Z,0.70
2018-03-21T07:37:32.825Z,0.70
2018-03-21T07:39:36.005Z,0.80
2018-03-21T07:41:39.184Z,0.80
2018-03-21T07:43:42.544Z,0.90
2018-03-21T07:45:45.735Z,1.00
2018-03-21T07:47:48.928Z,1.10
2018-03-21T07:49:54.090Z,1.20
2018-03-21T07:51:58.153Z,1.30
2018-03-21T07:54:01.589Z,1.30
2018-03-21T07:56:04.818Z,1.40
2018-03-21T07:58:08.281Z,1.50
2018-03-21T08:00:12.228Z,1.70
2018-03-21T08:02:15.400Z,1.60
2018-03-21T08:04:18.593Z,1.80
2018-03-21T08:06:22.740Z,1.90
2018-03-21T08:08:26.689Z,2.10
2018-03-21T08:10:29.886Z,2.00
2018-03-21T08:12:33.824Z,2.30
2018-03-21T08:14:36.988Z,2.30
2018-03-21T08:16:40.165Z,2.40
2018-03-21T08:18:43.356Z,2.60
2018-03-21T08:20:46.534Z,2.70
2018-03-21T08:22:50.469Z,3.00
2018-03-21T08:24:54.416Z,3.10
2018-03-21T08:26:57.585Z,3.10
2018-03-21T08:29:02.693Z,3.40
2018-03-21T08:31:05.881Z,3.40
2018-03-21T08:33:09.051Z,3.60
2018-03-21T08:35:12.989Z,3.90
2018-03-21T08:37:16.944Z,4.10
2018-03-21T08:39:20.225Z,4.00
2018-03-21T08:41:24.170Z,4.40
2018-03-21T08:43:27.364Z,4.30
2018-03-21T08:45:30.543Z,4.50
2018-03-21T08:47:35.227Z,4.80
2018-03-21T08:49:38.405Z,4.80
2018-03-21T08:51:43.453Z,5.10
2018-03-21T08:53:46.625Z,5.10
2018-03-21T08:55:49.814Z,5.20
2018-03-21T08:57:52.989Z,5.40
2018-03-21T08:59:56.941Z,5.70
2018-03-21T09:02:00.117Z,5.60
2018-03-21T09:04:04.324Z,5.80
2018-03-21T09:06:07.497Z,6.00
2018-03-21T09:08:10.687Z,6.10
2018-03-21T09:10:13.853Z,6.20
2018-03-21T09:12:17.033Z,6.40
2018-03-21T09:14:20.205Z,6.50
2018-03-21T09:16:25.256Z,6.70
2018-03-21T09:18:29.193Z,6.80
2018-03-21T09:20:32.431Z,6.80
2018-03-21T09:22:35.568Z,7.00
2018-03-21T09:24:38.767Z,7.10
2018-03-21T09:26:41.942Z,7.20
2018-03-21T09:28:45.111Z,7.30
2018-03-21T09:30:49.646Z,7.50
2018-03-21T09:32:53.605Z,7.60
2018-03-21T09:34:56.774Z,7.60
2018-03-21T09:37:00.724Z,7.80
2018-03-21T09:39:04.067Z,7.80
2018-03-21T09:41:07.213Z,7.90
2018-03-21T09:43:10.385Z,8.00
2018-03-21T09:45:13.562Z,8.10
2018-03-21T09:47:16.732Z,8.20
2018-03-21T09:49:20.669Z,8.30
2018-03-21T09:51:25.731Z,8.40
2018-03-21T09:53:28.915Z,8.40
2018-03-21T09:55:32.094Z,8.50
2018-03-21T09:57:35.265Z,8.50
2018-03-21T09:59:38.454Z,8.60
2018-03-21T10:01:42.389Z,8.80
2018-03-21T10:03:46.145Z,8.80
2018-03-21T10:05:49.317Z,8.80
2018-03-21T10:07:53.253Z,9.00
2018-03-21T10:09:56.421Z,9.00
2018-03-21T10:11:59.593Z,9.00
2018-03-21T10:14:02.777Z,9.20
2018-03-21T10:16:06.592Z,9.20
2018-03-21T10:18:10.544Z,9.40
2018-03-21T10:20:13.724Z,9.40
2018-03-21T10:22:17.665Z,9.50
2018-03-21T10:24:21.060Z,9.50
2018-03-21T10:26:25.025Z,9.70
2018-03-21T10:28:28.214Z,9.60
2018-03-21T10:30:31.382Z,9.70
2018-03-21T10:32:34.557Z,9.80
2018-03-21T10:34:37.732Z,9.90
2018-03-21T10:36:43.546Z,9.90
2018-03-21T10:38:47.136Z,9.90
2018-03-21T10:40:51.259Z,9.90
2018-03-21T10:42:54.436Z,9.90
2018-03-21T10:44:58.481Z,9.90
2018-03-21T10:47:01.915Z,9.90
2018-03-21T10:49:05.096Z,9.90
2018-03-21T10:51:09.249Z,10.00
2018-03-21T10:53:12.445Z,10.00
2018-03-21T10:55:16.369Z,10.00
2018-03-21T10:57:19.557Z,10.00
2018-03-21T10:59:24.845Z,10.10
2018-03-21T11:01:33.886Z,10.10
2018-03-21T11:03:37.116Z,10.20
2018-03-21T11:05:40.292Z,10.20
2018-03-21T11:07:43.502Z,10.30
2018-03-21T11:09:47.819Z,10.30
2018-03-21T11:11:51.829Z,10.30
2018-03-21T11:13:55.003Z,10.30
2018-03-21T11:15:59.347Z,10.30
2018-03-21T11:18:02.722Z,10.30
2018-03-21T11:20:05.912Z,10.30
2018-03-21T11:22:09.861Z,10.20
2018-03-21T11:24:14.862Z,10.20
2018-03-21T11:26:18.179Z,10.20
2018-03-21T11:28:21.385Z,10.20
2018-03-21T11:30:24.627Z,10.20
2018-03-21T11:32:28.615Z,10.20
2018-03-21T11:34:33.312Z,10.20
2018-03-21T11:36:36.520Z,10.20
2018-03-21T11:38:39.712Z,10.20
2018-03-21T11:40:43.673Z,10.20
2018-03-21T11:42:47.118Z,10.20
2018-03-21T11:44:50.309Z,10.10
2018-03-21T11:46:53.497Z,10.10
2018-03-21T11:48:56.685Z,10.20
2018-03-21T11:50:59.873Z,10.20
2018-03-21T11:55:08.024Z,10.10
2018-03-21T11:57:11.977Z,10.10
2018-03-21T11:59:15.388Z,10.10
2018-03-21T12:01:18.638Z,10.10
2018-03-21T12:03:21.838Z,10.10
2018-03-21T12:05:25.031Z,10.00
2018-03-21T12:07:28.217Z,10.00
2018-03-21T12:09:31.743Z,10.00
2018-03-21T12:11:35.832Z,9.90
2018-03-21T12:13:40.523Z,9.80
2018-03-21T12:15:43.704Z,9.80
2018-03-21T12:17:47.650Z,9.70
2018-03-21T12:19:51.860Z,9.70
2018-03-21T12:21:55.830Z,9.60
2018-03-21T12:23:59.406Z,9.60
2018-03-21T12:26:03.356Z,9.50
2018-03-21T12:28:06.549Z,9.50
2018-03-21T12:30:10.512Z,9.50
2018-03-21T12:32:13.698Z,9.50
2018-03-21T12:34:16.885Z,9.50
2018-03-21T12:36:20.848Z,9.50
2018-03-21T12:38:24.036Z,9.50
2018-03-21T12:40:27.219Z,9.50
2018-03-21T12:42:31.165Z,9.40
2018-03-21T12:44:34.406Z,9.40
2018-03-21T12:46:38.401Z,9.40
2018-03-21T12:48:41.576Z,9.40
2018-03-21T12:50:44.765Z,9.30
2018-03-21T12:52:47.952Z,9.30
2018-03-21T12:54:51.124Z,9.30
2018-03-21T12:56:55.066Z,9.20
2018-03-21T12:58:58.242Z,9.20
2018-03-21T13:01:01.773Z,9.20
2018-03-21T13:03:05.723Z,9.10
2018-03-21T13:05:08.910Z,9.10
2018-03-21T13:07:13.968Z,9.10
2018-03-21T13:09:17.155Z,9.00
2018-03-21T13:11:21.121Z,9.00
2018-03-21T13:13:24.300Z,9.00
2018-03-21T13:15:28.269Z,9.00
2018-03-21T13:17:31.520Z,9.00
2018-03-21T13:19:35.769Z,9.00
2018-03-21T13:21:38.964Z,9.00
2018-03-21T13:23:42.917Z,9.00
2018-03-21T13:25:46.100Z,9.00
2018-03-21T13:27:50.064Z,9.00
2018-03-21T13:29:54.017Z,9.00
2018-03-21T13:31:57.273Z,9.10
2018-03-21T13:34:01.228Z,9.20
2018-03-21T13:36:04.518Z,9.20
2018-03-21T13:38:07.710Z,9.20
2018-03-21T13:40:11.653Z,9.30
2018-03-21T13:42:14.834Z,9.30
2018-03-21T13:44:18.018Z,9.30
2018-03-21T13:46:21.278Z,9.30
2018-03-21T13:48:24.444Z,9.30
2018-03-21T13:50:27.626Z,9.30
2018-03-21T13:52:30.808Z,9.30
2018-03-21T13:54:34.676Z,9.30
2018-03-21T13:56:37.858Z,9.30
2018-03-21T13:58:41.037Z,9.30
2018-03-21T14:00:44.990Z,9.30
2018-03-21T14:02:48.164Z,9.30
2018-03-21T14:04:52.178Z,9.40
2018-03-21T14:06:55.579Z,9.30
2018-03-21T14:08:58.766Z,9.40
2018-03-21T14:11:01.980Z,9.40
2018-03-21T14:13:05.137Z,9.50
2018-03-21T14:15:09.078Z,9.50
2018-03-21T14:17:12.269Z,9.50
2018-03-21T14:19:16.218Z,9.50
2018-03-21T14:21:19.397Z,9.50
2018-03-21T14:23:23.340Z,9.50
2018-03-21T14:25:26.535Z,9.50
2018-03-21T14:27:30.477Z,9.50
2018-03-21T14:29:33.690Z,9.50
2018-03-21T14:31:37.200Z,9.50
2018-03-21T14:33:40.399Z,9.50
2018-03-21T14:35:44.355Z,9.50
2018-03-21T14:37:47.556Z,9.50
2018-03-21T14:39:50.758Z,9.50
2018-03-21T14:41:53.938Z,9.50
2018-03-21T14:43:57.889Z,9.50
2018-03-21T14:46:01.070Z,9.40
2018-03-21T14:48:05.020Z,9.40
2018-03-21T14:50:08.220Z,9.40
2018-03-21T14:52:12.452Z,9.40
2018-03-21T14:54:19.008Z,9.40
2018-03-21T14:56:23.692Z,9.40
2018-03-21T14:58:26.885Z,9.40
2018-03-21T15:00:30.825Z,9.40
2018-03-21T15:02:34.009Z,9.40
2018-03-21T15:04:37.600Z,9.40
2018-03-21T15:06:40.789Z,9.40
2018-03-21T15:08:43.984Z,9.40
2018-03-21T15:10:47.170Z,9.40
2018-03-21T15:12:51.111Z,9.50
2018-03-21T15:14:54.289Z,9.50
2018-03-21T15:16:57.862Z,9.50
2018-03-21T15:19:01.491Z,9.50
2018-03-21T15:21:04.692Z,9.50
2018-03-21T15:23:07.896Z,9.50
2018-03-21T15:25:11.228Z,9.50
2018-03-21T15:27:14.403Z,9.50
2018-03-21T15:29:17.595Z,9.50
2018-03-21T15:31:20.771Z,9.50
2018-03-21T15:33:26.558Z,9.50
2018-03-21T15:35:30.513Z,9.50
2018-03-21T15:37:33.686Z,9.40
2018-03-21T15:39:37.630Z,9.40
2018-03-21T15:41:40.839Z,9.40
2018-03-21T15:43:44.009Z,9.50
2018-03-21T15:45:47.244Z,9.40
2018-03-21T15:47:51.192Z,9.40
2018-03-21T15:49:54.413Z,9.40
2018-03-21T15:51:57.597Z,9.40
2018-03-21T15:54:00.785Z,9.40
2018-03-21T15:56:05.853Z,9.40
2018-03-21T15:58:09.034Z,9.40
2018-03-21T16:00:12.243Z,9.40
2018-03-21T16:02:15.422Z,9.40
2018-03-21T16:04:18.648Z,9.40
2018-03-21T16:06:21.806Z,9.40
2018-03-21T16:08:26.878Z,9.30
2018-03-21T16:10:30.062Z,9.30
2018-03-21T16:12:33.255Z,9.30
2018-03-21T16:14:37.421Z,9.30
2018-03-21T16:16:40.605Z,9.30
2018-03-21T16:18:44.080Z,9.30
2018-03-21T16:20:47.263Z,9.30
2018-03-21T16:22:50.629Z,9.30
2018-03-21T16:24:56.237Z,9.20
2018-03-21T16:27:02.503Z,9.20
2018-03-21T16:29:07.998Z,9.20
2018-03-21T16:31:12.620Z,9.20
2018-03-21T16:33:16.885Z,9.20
2018-03-21T16:35:21.812Z,9.10
2018-03-21T16:37:26.988Z,9.10
2018-03-21T16:39:30.317Z,9.10
2018-03-21T16:41:34.262Z,9.10
2018-03-21T16:43:37.629Z,9.00
2018-03-21T16:45:41.100Z,9.10
2018-03-21T16:47:44.348Z,9.00
2018-03-21T16:49:48.332Z,9.00
2018-03-21T16:51:51.514Z,9.00
2018-03-21T16:53:55.456Z,9.00
2018-03-21T16:55:58.853Z,9.00
2018-03-21T16:58:03.252Z,9.00
2018-03-21T17:00:06.705Z,9.00
2018-03-21T17:02:09.908Z,9.00
2018-03-21T17:04:13.854Z,8.90
2018-03-21T17:06:17.293Z,8.90
2018-03-21T17:08:20.515Z,8.90
2018-03-21T17:10:23.697Z,8.90
2018-03-21T17:12:26.890Z,8.90
2018-03-21T17:14:30.909Z,8.90
2018-03-21T17:16:34.105Z,8.80
2018-03-21T17:18:38.143Z,8.80
2018-03-21T17:20:41.340Z,8.80
2018-03-21T17:22:44.514Z,8.80
2018-03-21T17:24:47.997Z,8.80
2018-03-21T17:26:51.192Z,8.80
2018-03-21T17:28:54.363Z,8.80
2018-03-21T17:30:57.540Z,8.70
2018-03-21T17:33:00.712Z,8.70
2018-03-21T17:35:03.904Z,8.70
2018-03-21T17:37:07.084Z,8.70
2018-03-21T17:39:10.839Z,8.70
2018-03-21T17:41:14.789Z,8.60
2018-03-21T17:43:17.964Z,8.50
2018-03-21T17:45:21.151Z,8.60
2018-03-21T17:47:24.327Z,8.50
2018-03-21T17:49:29.289Z,8.50
2018-03-21T17:51:35.597Z,8.50
2018-03-21T17:53:40.758Z,8.40
2018-03-21T17:55:44.752Z,8.30
2018-03-21T17:57:47.938Z,8.30
2018-03-21T17:59:51.115Z,8.30
2018-03-21T18:01:56.201Z,8.20
2018-03-21T18:03:59.378Z,8.20
2018-03-21T18:06:03.483Z,8.10
2018-03-21T18:08:06.672Z,8.10
2018-03-21T18:10:09.853Z,8.00
2018-03-21T18:12:13.034Z,8.00
2018-03-21T18:14:16.293Z,7.90
2018-03-21T18:16:19.568Z,7.90
2018-03-21T18:18:22.748Z,7.80
2018-03-21T18:20:25.942Z,7.80
2018-03-21T18:22:29.121Z,7.70
2018-03-21T18:24:32.722Z,7.70
2018-03-21T18:26:36.659Z,7.60
2018-03-21T18:28:39.871Z,7.60
2018-03-21T18:30:43.061Z,7.50
2018-03-21T18:32:46.254Z,7.50
2018-03-21T18:34:50.253Z,7.40
2018-03-21T18:36:54.380Z,7.40
2018-03-21T18:38:57.585Z,7.30
2018-03-21T18:41:00.766Z,7.30
2018-03-21T18:43:03.945Z,7.30
2018-03-21T18:45:07.348Z,7.20
2018-03-21T18:47:11.510Z,7.20
2018-03-21T18:49:14.841Z,7.10
2018-03-21T18:51:18.220Z,7.10
2018-03-21T18:53:21.436Z,7.10
2018-03-21T18:55:26.032Z,7.00
2018-03-21T18:57:30.936Z,7.00
2018-03-21T18:59:35.890Z,7.00
2018-03-21T19:01:45.049Z,6.90
2018-03-21T19:03:52.530Z,6.90
2018-03-21T19:06:00.581Z,6.90
2018-03-21T19:08:08.046Z,6.80
2018-03-21T19:10:13.516Z,6.80
2018-03-21T19:12:18.085Z,6.80
2018-03-21T19:14:21.304Z,6.70
2018-03-21T19:16:24.504Z,6.70
2018-03-21T19:18:27.742Z,6.70
2018-03-21T19:20:32.189Z,6.60
2018-03-21T19:22:35.375Z,6.60
2018-03-21T19:24:38.555Z,6.60
2018-03-21T19:26:41.885Z,6.50
2018-03-21T19:28:45.852Z,6.50
2018-03-21T19:30:49.044Z,6.50
2018-03-21T19:32:53.005Z,6.40
2018-03-21T19:34:56.200Z,6.40
2018-03-21T19:36:59.404Z,6.40
2018-03-21T19:39:02.593Z,6.40
2018-03-21T19:41:05.785Z,6.40
2018-03-21T19:43:09.342Z,6.40
2018-03-21T19:45:12.897Z,6.40
2018-03-21T19:47:16.075Z,6.40
2018-03-21T19:49:19.263Z,6.30
2018-03-21T19:51:23.224Z,6.30
2018-03-21T19:53:26.445Z,6.30
2018-03-21T19:55:29.627Z,6.30
2018-03-21T19:57:32.817Z,6.30
2018-03-21T19:59:36.777Z,6.20
2018-03-21T20:01:39.962Z,6.20
2018-03-21T20:03:43.152Z,6.20
2018-03-21T20:05:47.142Z,6.20
2018-03-21T20:07:50.310Z,6.20
2018-03-21T20:09:53.504Z,6.20
2018-03-21T20:11:56.689Z,6.20
2018-03-21T20:13:59.871Z,6.20
2018-03-21T20:16:03.229Z,6.20
2018-03-21T20:18:06.445Z,6.20
2018-03-21T20:20:09.635Z,6.20
2018-03-21T20:22:13.950Z,6.20
2018-03-21T20:24:17.663Z,6.10
2018-03-21T20:26:21.647Z,6.10
2018-03-21T20:28:24.856Z,6.10
2018-03-21T20:30:28.298Z,6.10
2018-03-21T20:32:31.534Z,6.00
2018-03-21T20:34:35.794Z,6.00
2018-03-21T20:36:39.819Z,6.00
2018-03-21T20:38:43.166Z,6.00
2018-03-21T20:40:46.673Z,5.90
2018-03-21T20:42:50.238Z,5.90
2018-03-21T20:44:53.426Z,5.90
2018-03-21T20:46:56.684Z,5.90
2018-03-21T20:48:59.967Z,5.80
2018-03-21T20:51:04.542Z,5.80
2018-03-21T20:53:08.691Z,5.70
2018-03-21T20:55:11.927Z,5.70
2018-03-21T20:57:15.161Z,5.70
2018-03-21T20:59:19.134Z,5.70
2018-03-21T21:01:23.291Z,5.70
2018-03-21T21:03:26.476Z,5.70
2018-03-21T21:05:29.666Z,5.60
2018-03-21T21:07:32.819Z,5.60
2018-03-21T21:09:36.274Z,5.60
2018-03-21T21:11:40.307Z,5.60
2018-03-21T21:13:44.311Z,5.60
2018-03-21T21:15:47.517Z,5.50
2018-03-21T21:17:52.876Z,5.50
2018-03-21T21:19:56.057Z,5.50
2018-03-21T21:21:59.312Z,5.50
2018-03-21T21:24:02.497Z,5.50
2018-03-21T21:26:05.791Z,5.50
2018-03-21T21:28:08.974Z,5.50
2018-03-21T21:30:12.143Z,5.40
2018-03-21T21:32:16.121Z,5.40
2018-03-21T21:34:19.421Z,5.40
2018-03-21T21:36:23.075Z,5.40
2018-03-21T21:38:26.177Z,5.40
2018-03-21T21:40:29.342Z,5.40
2018-03-21T21:42:32.561Z,5.40
2018-03-21T21:44:35.722Z,5.30
2018-03-21T21:46:38.900Z,5.30
2018-03-21T21:48:42.048Z,5.30
2018-03-21T21:50:46.058Z,5.20
2018-03-21T21:52:49.237Z,5.20
2018-03-21T21:54:52.457Z,5.20
2018-03-21T21:56:55.604Z,5.20
2018-03-21T21:58:59.909Z,5.20
2018-03-21T22:01:03.147Z,5.20
2018-03-21T22:03:06.351Z,5.20
2018-03-21T22:05:10.279Z,5.10
2018-03-21T22:07:14.216Z,5.10
2018-03-21T22:09:17.382Z,5.10
2018-03-21T22:11:20.564Z,5.10
2018-03-21T22:13:23.725Z,5.10
2018-03-21T22:15:27.644Z,5.00
2018-03-21T22:17:31.902Z,5.00
2018-03-21T22:19:35.097Z,5.00
2018-03-21T22:21:39.576Z,5.00
2018-03-21T22:23:43.969Z,4.90
2018-03-21T22:25:47.926Z,4.90
2018-03-21T22:27:51.108Z,4.90
2018-03-21T22:29:54.301Z,4.90
2018-03-21T22:31:58.265Z,4.90
2018-03-21T22:34:01.453Z,4.80
2018-03-21T22:36:04.760Z,4.90
2018-03-21T22:38:08.740Z,4.80
2018-03-21T22:40:11.865Z,4.80
2018-03-21T22:42:15.049Z,4.80
2018-03-21T22:44:18.228Z,4.80
2018-03-21T22:46:21.381Z,4.70
2018-03-21T22:48:24.575Z,4.70
2018-03-21T22:50:27.800Z,4.70
2018-03-21T22:52:30.994Z,4.60
2018-03-21T22:54:34.151Z,4.60
2018-03-21T22:56:37.324Z,4.60
2018-03-21T22:58:40.517Z,4.60
2018-03-21T23:00:43.762Z,4.60
2018-03-21T23:02:48.200Z,4.50
2018-03-21T23:04:52.119Z,4.50
2018-03-21T23:06:55.292Z,4.50
2018-03-21T23:08:58.448Z,4.50
2018-03-21T23:11:02.877Z,4.50
2018-03-21T23:13:07.957Z,4.40
2018-03-21T23:15:11.158Z,4.40
2018-03-21T23:17:14.334Z,4.40
2018-03-21T23:19:17.510Z,4.40
2018-03-21T23:21:20.697Z,4.40
2018-03-21T23:23:23.842Z,4.40
2018-03-21T23:25:27.999Z,4.40
2018-03-21T23:27:32.255Z,4.40
2018-03-21T23:29:35.415Z,4.40
2018-03-21T23:31:38.600Z,4.30
2018-03-21T23:33:41.762Z,4.40
2018-03-21T23:35:45.825Z,4.30
2018-03-21T23:37:48.983Z,4.30
2018-03-21T23:39:52.673Z,4.30
2018-03-21T23:41:55.888Z,4.30
2018-03-21T23:43:59.026Z,4.30
2018-03-21T23:46:02.989Z,4.30
2018-03-21T23:48:06.170Z,4.30
2018-03-21T23:50:10.095Z,4.30
2018-03-21T23:52:14.052Z,4.30
2018-03-21T23:54:17.207Z,4.30
2018-03-21T23:56:20.403Z,4.30
2018-03-21T23:58:23.556Z,4.30
